Terminal Aerodrome Forecast
Issued by NWS

Home | Current Version | Previous Version | Text Only | Print | Product List | Glossary On
Versions: 1 2 3 4 5 6 7 8 9 10 11 12 13 14 15 16 17 18 19 20 21 22 23 24 25 26 27 28 29 30 31 32 33
000
FTUS44 KLIX 200700 AAA
TAFHUM
TAF AMD
KHUM 200700Z 2007/2106 03009KT P6SM -DZ OVC006
     FM201200 02010KT P6SM BKN007
     FM201600 02009KT P6SM BKN020
     FM210000 02008KT P6SM BKN025
     FM210500 03007KT P6SM BKN035=

USA.gov is the U.S. government's official web portal to all federal, state and local government web resources and services.